createdAt,value
2023-05-23T00:01:55.460Z,64.88
2023-05-23T00:04:41.341Z,65.11
2023-05-23T00:07:27.176Z,65.03
2023-05-23T00:10:13.981Z,65.48
2023-05-23T00:12:59.388Z,65.41
2023-05-23T00:15:45.769Z,65.62
2023-05-23T00:18:31.647Z,65.78
2023-05-23T00:21:17.673Z,65.67
2023-05-23T00:24:04.662Z,65.88
2023-05-23T00:26:50.198Z,66.22
2023-05-23T00:29:36.486Z,66.01
2023-05-23T00:32:22.068Z,66.56
2023-05-23T00:35:08.393Z,66.26
2023-05-23T00:37:54.328Z,66.60
2023-05-23T00:40:40.332Z,66.12
2023-05-23T00:43:25.863Z,66.93
2023-05-23T00:46:12.043Z,66.73
2023-05-23T00:48:57.851Z,67.12
2023-05-23T00:51:43.618Z,67.34
2023-05-23T00:54:33.853Z,67.29
2023-05-23T00:57:19.616Z,66.97
2023-05-23T01:00:08.822Z,67.59
2023-05-23T01:02:55.142Z,67.57
2023-05-23T01:05:40.890Z,67.56
2023-05-23T01:08:29.268Z,67.76
2023-05-23T01:11:33.339Z,68.25
2023-05-23T01:14:57.855Z,68.46
2023-05-23T01:17:58.817Z,68.50
2023-05-23T01:20:50.863Z,68.31
2023-05-23T01:23:55.985Z,68.17
2023-05-23T01:27:06.605Z,68.82
2023-05-23T01:29:57.664Z,68.11
2023-05-23T01:32:43.679Z,69.07
2023-05-23T01:35:30.380Z,68.22
2023-05-23T01:38:15.897Z,68.62
2023-05-23T01:41:01.228Z,68.96
2023-05-23T01:43:47.742Z,68.78
2023-05-23T01:46:35.905Z,68.88
2023-05-23T01:49:23.180Z,69.20
2023-05-23T01:52:11.643Z,68.99
2023-05-23T01:54:59.432Z,69.05
2023-05-23T01:57:49.812Z,69.05
2023-05-23T02:00:36.013Z,69.29
2023-05-23T02:03:22.269Z,69.48
2023-05-23T02:06:10.924Z,69.25
2023-05-23T02:08:56.312Z,69.16
2023-05-23T02:11:42.872Z,69.61
2023-05-23T02:14:28.663Z,69.50
2023-05-23T02:17:16.909Z,69.44
2023-05-23T02:20:02.893Z,69.66
2023-05-23T02:22:49.885Z,69.79
2023-05-23T02:25:35.374Z,69.60
2023-05-23T02:28:21.156Z,70.19
2023-05-23T02:31:08.250Z,69.94
2023-05-23T02:33:53.835Z,69.88
2023-05-23T02:36:39.522Z,69.81
2023-05-23T02:39:24.905Z,69.94
2023-05-23T02:42:10.925Z,69.94
2023-05-23T02:44:56.470Z,69.81
2023-05-23T02:47:42.107Z,69.77
2023-05-23T02:50:27.819Z,70.28
2023-05-23T02:53:13.444Z,70.37
2023-05-23T02:55:58.898Z,70.08
2023-05-23T02:58:44.841Z,70.05
2023-05-23T03:01:30.219Z,70.75
2023-05-23T03:04:16.254Z,69.90
2023-05-23T03:07:05.420Z,70.49
2023-05-23T03:09:53.152Z,70.62
2023-05-23T03:12:38.994Z,70.98
2023-05-23T03:15:24.943Z,70.78
2023-05-23T03:18:11.070Z,71.22
2023-05-23T03:20:57.126Z,70.79
2023-05-23T03:23:42.998Z,69.88
2023-05-23T03:26:28.660Z,70.41
2023-05-23T03:29:15.351Z,70.35
2023-05-23T03:32:02.506Z,70.91
2023-05-23T03:34:48.367Z,70.77
2023-05-23T03:37:34.762Z,70.60
2023-05-23T03:40:20.465Z,71.25
2023-05-23T03:43:07.192Z,71.19
2023-05-23T03:45:55.189Z,71.34
2023-05-23T03:48:40.685Z,71.19
2023-05-23T03:51:26.404Z,71.48
2023-05-23T03:54:12.189Z,71.48
2023-05-23T03:56:57.816Z,71.88
2023-05-23T03:59:43.585Z,71.62
2023-05-23T04:02:31.387Z,72.21
2023-05-23T04:05:17.312Z,71.73
2023-05-23T04:08:02.607Z,71.59
2023-05-23T04:10:49.147Z,72.38
2023-05-23T04:13:34.736Z,72.36
2023-05-23T04:16:20.269Z,72.36
2023-05-23T04:19:06.403Z,72.17
2023-05-23T04:21:52.446Z,72.51
2023-05-23T04:24:38.324Z,72.66
2023-05-23T04:27:26.162Z,71.59
2023-05-23T04:30:13.333Z,72.50
2023-05-23T04:33:02.219Z,72.51
2023-05-23T04:35:49.472Z,71.63
2023-05-23T04:38:35.713Z,72.14
2023-05-23T04:41:24.761Z,72.45
2023-05-23T04:44:37.690Z,72.12
2023-05-23T04:47:37.055Z,71.78
2023-05-23T04:50:26.317Z,71.35
2023-05-23T04:53:11.652Z,71.84
2023-05-23T04:55:57.683Z,72.83
2023-05-23T04:58:45.455Z,72.08
2023-05-23T05:01:32.389Z,71.89
2023-05-23T05:04:18.329Z,70.98
2023-05-23T05:07:04.321Z,71.38
2023-05-23T05:09:49.877Z,71.01
2023-05-23T05:12:36.547Z,71.00
2023-05-23T05:15:21.857Z,70.66
2023-05-23T05:18:12.397Z,70.94
2023-05-23T05:20:59.050Z,71.07
2023-05-23T05:23:44.783Z,70.98
2023-05-23T05:26:31.275Z,71.72
2023-05-23T05:29:16.951Z,71.25
2023-05-23T05:32:03.456Z,71.41
2023-05-23T05:34:49.619Z,71.30
2023-05-23T05:37:37.150Z,70.96
2023-05-23T05:40:23.036Z,70.98
2023-05-23T05:43:10.200Z,70.90
2023-05-23T05:45:56.391Z,70.43
2023-05-23T05:48:41.888Z,70.92
2023-05-23T05:51:30.458Z,70.65
2023-05-23T05:54:18.303Z,70.71
2023-05-23T05:57:05.150Z,70.49
2023-05-23T05:59:52.527Z,70.67
2023-05-23T06:02:39.295Z,70.20
2023-05-23T06:05:25.071Z,69.96
2023-05-23T06:08:10.483Z,69.92
2023-05-23T06:10:56.867Z,69.63
2023-05-23T06:13:43.704Z,69.63
2023-05-23T06:16:29.237Z,69.43
2023-05-23T06:19:14.962Z,69.52
2023-05-23T06:22:00.794Z,69.13
2023-05-23T06:24:46.933Z,69.25
2023-05-23T06:27:32.732Z,69.42
2023-05-23T06:30:18.223Z,68.85
2023-05-23T06:33:04.135Z,69.27
2023-05-23T06:35:49.841Z,68.87
2023-05-23T06:38:35.913Z,69.00
2023-05-23T06:41:22.786Z,68.57
2023-05-23T06:44:10.472Z,68.73
2023-05-23T06:46:59.388Z,68.71
2023-05-23T06:49:45.691Z,68.69
2023-05-23T06:52:31.237Z,68.22
2023-05-23T06:55:19.397Z,67.55
2023-05-23T06:58:07.759Z,67.05
2023-05-23T07:00:55.806Z,66.87
2023-05-23T07:03:45.948Z,66.83
2023-05-23T07:06:32.801Z,66.49
2023-05-23T07:09:19.833Z,66.07
2023-05-23T07:12:06.604Z,65.80
2023-05-23T07:14:54.470Z,65.32
2023-05-23T07:17:40.283Z,64.91
2023-05-23T07:20:26.453Z,64.57
2023-05-23T07:23:18.136Z,63.92
2023-05-23T07:26:05.093Z,63.83
2023-05-23T07:28:59.362Z,63.25
2023-05-23T07:31:46.112Z,63.02
2023-05-23T07:34:33.059Z,63.04
2023-05-23T07:37:20.703Z,62.44
2023-05-23T07:40:09.293Z,62.34
2023-05-23T07:42:55.894Z,62.46
2023-05-23T07:45:41.910Z,62.13
2023-05-23T07:48:27.685Z,61.82
2023-05-23T07:51:13.179Z,61.91
2023-05-23T07:53:58.787Z,61.63
2023-05-23T07:56:45.208Z,61.21
2023-05-23T07:59:31.791Z,61.12
2023-05-23T08:02:18.712Z,61.24
2023-05-23T08:05:05.002Z,61.27
2023-05-23T08:07:53.646Z,60.98
2023-05-23T08:10:40.275Z,61.03
2023-05-23T08:13:31.522Z,60.76
2023-05-23T08:16:55.643Z,60.96
2023-05-23T08:19:44.582Z,60.94
2023-05-23T08:22:30.701Z,60.96
2023-05-23T08:25:16.894Z,60.92
2023-05-23T08:28:02.501Z,60.87
2023-05-23T08:30:58.283Z,60.83
2023-05-23T08:33:44.824Z,60.73
2023-05-23T08:36:36.376Z,60.74
2023-05-23T08:39:23.910Z,60.63
2023-05-23T08:42:29.039Z,60.43
2023-05-23T08:45:16.374Z,60.40
2023-05-23T08:48:03.746Z,60.19
2023-05-23T08:50:53.360Z,60.10
2023-05-23T08:53:42.897Z,59.97
2023-05-23T08:56:29.125Z,59.83
2023-05-23T08:59:16.630Z,59.76
2023-05-23T09:02:07.608Z,59.71
2023-05-23T09:04:53.572Z,59.52
2023-05-23T09:07:48.028Z,59.32
2023-05-23T09:10:35.974Z,58.87
2023-05-23T09:13:23.048Z,58.93
2023-05-23T09:16:12.832Z,58.86
2023-05-23T09:19:13.176Z,58.64
2023-05-23T09:22:02.820Z,58.51
2023-05-23T09:24:58.453Z,58.70
2023-05-23T09:27:47.457Z,58.43
2023-05-23T09:30:34.702Z,58.53
2023-05-23T09:33:20.215Z,58.51
2023-05-23T09:36:07.514Z,58.22
2023-05-23T09:38:53.041Z,57.61
2023-05-23T09:41:39.084Z,58.11
2023-05-23T09:44:24.594Z,58.38
2023-05-23T09:47:10.183Z,58.39
2023-05-23T09:49:56.232Z,58.46
2023-05-23T09:52:41.572Z,58.66
2023-05-23T09:55:27.759Z,58.52
2023-05-23T09:58:14.411Z,58.66
2023-05-23T10:01:03.779Z,58.79
2023-05-23T10:03:51.927Z,58.93
2023-05-23T10:06:53.329Z,58.86
2023-05-23T10:09:40.419Z,58.88
2023-05-23T10:12:50.188Z,59.02
2023-05-23T10:15:40.339Z,58.76
2023-05-23T10:18:38.789Z,58.89
2023-05-23T10:21:32.180Z,58.92
2023-05-23T10:24:18.257Z,58.90
2023-05-23T10:27:04.266Z,58.69
2023-05-23T10:29:49.911Z,58.70
2023-05-23T10:32:38.941Z,58.49
2023-05-23T10:35:39.820Z,58.44
2023-05-23T10:38:58.763Z,58.05
2023-05-23T10:41:51.704Z,58.15
2023-05-23T10:44:37.573Z,57.62
2023-05-23T10:47:28.433Z,57.46
2023-05-23T10:50:15.972Z,57.39
2023-05-23T10:53:03.886Z,57.16
2023-05-23T10:55:49.884Z,57.36
2023-05-23T10:58:41.704Z,57.35
2023-05-23T11:01:27.507Z,57.66
2023-05-23T11:04:13.295Z,57.90
2023-05-23T11:06:59.149Z,57.95
2023-05-23T11:10:05.355Z,57.60
2023-05-23T11:13:06.338Z,57.94
2023-05-23T11:15:51.842Z,57.99
2023-05-23T11:18:38.126Z,57.89
2023-05-23T11:21:24.801Z,57.67
2023-05-23T11:24:10.632Z,57.45
2023-05-23T11:27:04.052Z,57.61
2023-05-23T11:30:00.698Z,56.83
2023-05-23T11:32:54.453Z,56.58
2023-05-23T11:35:44.408Z,56.46
2023-05-23T11:38:29.887Z,56.58
2023-05-23T11:41:15.839Z,56.31
2023-05-23T11:44:11.640Z,55.91
2023-05-23T11:47:04.794Z,56.18
2023-05-23T11:49:50.297Z,56.04
2023-05-23T11:52:36.240Z,55.69
2023-05-23T11:55:23.011Z,55.84
2023-05-23T11:58:11.137Z,55.48
2023-05-23T12:01:02.522Z,55.34
2023-05-23T12:03:50.620Z,55.06
2023-05-23T12:06:38.553Z,54.94
2023-05-23T12:09:23.809Z,54.85
2023-05-23T12:12:09.391Z,55.00
2023-05-23T12:14:58.315Z,54.67
2023-05-23T12:17:47.386Z,54.58
2023-05-23T12:20:35.763Z,54.41
2023-05-23T12:23:22.882Z,54.40
2023-05-23T12:26:10.375Z,53.90
2023-05-23T12:28:57.998Z,53.93
2023-05-23T12:31:43.541Z,53.84
2023-05-23T12:34:29.414Z,53.59
2023-05-23T12:37:19.684Z,53.45
2023-05-23T12:40:17.040Z,53.02
2023-05-23T12:43:02.590Z,53.54
2023-05-23T12:45:48.147Z,53.43
2023-05-23T12:48:34.306Z,53.03
2023-05-23T12:51:20.437Z,52.90
2023-05-23T12:54:06.628Z,52.61
2023-05-23T12:56:52.355Z,52.06
2023-05-23T12:59:37.746Z,52.37
2023-05-23T13:02:23.293Z,51.94
2023-05-23T13:05:09.464Z,52.17
2023-05-23T13:07:55.578Z,52.02
2023-05-23T13:10:41.203Z,51.89
2023-05-23T13:13:26.873Z,51.41
2023-05-23T13:16:12.946Z,51.43
2023-05-23T13:18:58.513Z,51.00
2023-05-23T13:21:44.758Z,50.59
2023-05-23T13:24:31.568Z,50.16
2023-05-23T13:27:18.479Z,50.11
2023-05-23T13:30:04.685Z,50.23
2023-05-23T13:32:51.957Z,49.74
2023-05-23T13:35:37.638Z,49.53
2023-05-23T13:38:24.799Z,49.10
2023-05-23T13:41:12.043Z,49.17
2023-05-23T13:43:57.307Z,48.28
2023-05-23T13:46:43.752Z,48.01
2023-05-23T13:49:29.520Z,47.57
2023-05-23T13:52:14.739Z,47.52
2023-05-23T13:55:01.741Z,47.17
2023-05-23T13:57:47.567Z,47.10
2023-05-23T14:00:32.864Z,47.28
2023-05-23T14:03:19.598Z,47.16
2023-05-23T14:06:05.328Z,47.04
2023-05-23T14:08:51.108Z,47.13
2023-05-23T14:11:36.924Z,47.30
2023-05-23T14:14:22.242Z,47.26
2023-05-23T14:17:07.722Z,47.73
2023-05-23T14:19:53.159Z,47.97
2023-05-23T14:22:38.618Z,48.09
2023-05-23T14:25:24.097Z,48.30
2023-05-23T14:28:09.549Z,48.50
2023-05-23T14:30:55.781Z,48.23
2023-05-23T14:33:41.577Z,48.11
2023-05-23T14:36:28.142Z,47.94
2023-05-23T14:39:14.480Z,47.94
2023-05-23T14:42:00.238Z,47.92
2023-05-23T14:44:45.883Z,47.49
2023-05-23T14:47:32.177Z,47.48
2023-05-23T14:50:17.558Z,47.34
2023-05-23T14:53:03.432Z,47.28
2023-05-23T14:55:48.834Z,47.30
2023-05-23T14:58:34.216Z,47.33
2023-05-23T15:01:19.528Z,47.43
2023-05-23T15:04:05.767Z,48.00
2023-05-23T15:06:51.393Z,47.72
2023-05-23T15:09:36.871Z,47.81
2023-05-23T15:12:22.412Z,47.91
2023-05-23T15:15:08.446Z,48.01
2023-05-23T15:17:53.974Z,48.39
2023-05-23T15:20:39.877Z,48.62
2023-05-23T15:23:25.718Z,48.68
2023-05-23T15:26:11.479Z,48.71
2023-05-23T15:28:56.985Z,49.09
2023-05-23T15:31:42.640Z,48.89
2023-05-23T15:34:28.309Z,48.83
2023-05-23T15:37:13.828Z,48.93
2023-05-23T15:39:59.107Z,49.15
2023-05-23T15:42:44.619Z,49.15
2023-05-23T15:45:30.351Z,48.83
2023-05-23T15:48:15.988Z,49.31
2023-05-23T15:51:01.635Z,48.94
2023-05-23T15:54:00.706Z,48.92
2023-05-23T15:56:47.312Z,48.93
2023-05-23T15:59:32.692Z,48.89
2023-05-23T16:02:19.321Z,48.69
2023-05-23T16:05:05.922Z,48.65
2023-05-23T16:07:51.659Z,48.56
2023-05-23T16:10:37.067Z,48.52
2023-05-23T16:13:22.626Z,48.43
2023-05-23T16:16:08.086Z,48.48
2023-05-23T16:18:54.270Z,48.44
2023-05-23T16:21:39.918Z,48.54
2023-05-23T16:24:28.299Z,48.60
2023-05-23T16:27:13.954Z,48.95
2023-05-23T16:29:59.557Z,49.14
2023-05-23T16:32:45.576Z,49.07
2023-05-23T16:35:31.020Z,49.29
2023-05-23T16:38:16.607Z,49.56
2023-05-23T16:41:01.798Z,49.77
2023-05-23T16:43:47.035Z,50.07
2023-05-23T16:46:33.824Z,50.19
2023-05-23T16:49:19.468Z,50.42
2023-05-23T16:52:05.150Z,50.33
2023-05-23T16:54:51.157Z,51.01
2023-05-23T16:57:36.637Z,50.93
2023-05-23T17:00:22.465Z,51.06
2023-05-23T17:03:08.220Z,51.24
2023-05-23T17:05:54.764Z,51.45
2023-05-23T17:08:40.536Z,51.86
2023-05-23T17:11:27.146Z,51.70
2023-05-23T17:14:12.879Z,51.88
2023-05-23T17:16:58.371Z,52.31
2023-05-23T17:19:44.231Z,52.32
2023-05-23T17:22:30.024Z,52.73
2023-05-23T17:25:15.561Z,52.55
2023-05-23T17:28:01.049Z,52.67
2023-05-23T17:30:46.656Z,52.73
2023-05-23T17:33:32.015Z,52.92
2023-05-23T17:36:18.015Z,53.31
2023-05-23T17:39:03.316Z,53.04
2023-05-23T17:41:49.075Z,53.71
2023-05-23T17:44:34.829Z,53.83
2023-05-23T17:47:21.606Z,53.64
2023-05-23T17:50:07.793Z,53.97
2023-05-23T17:52:53.569Z,54.16
2023-05-23T17:55:39.858Z,54.38
2023-05-23T17:58:26.195Z,54.15
2023-05-23T18:01:11.893Z,54.50
2023-05-23T18:03:57.555Z,54.48
2023-05-23T18:06:42.884Z,54.67
2023-05-23T18:09:28.764Z,54.97
2023-05-23T18:12:15.028Z,55.12
2023-05-23T18:15:01.306Z,55.38
2023-05-23T18:17:47.068Z,55.33
2023-05-23T18:20:33.015Z,55.57
2023-05-23T18:23:18.888Z,55.57
2023-05-23T18:26:04.456Z,56.16
2023-05-23T18:28:50.014Z,56.20
2023-05-23T18:31:35.601Z,56.43
2023-05-23T18:34:21.689Z,56.61
2023-05-23T18:37:07.251Z,56.77
2023-05-23T18:39:52.576Z,56.86
2023-05-23T18:42:38.396Z,56.75
2023-05-23T18:45:24.146Z,57.18
2023-05-23T18:48:10.221Z,57.30
2023-05-23T18:50:55.534Z,57.37
2023-05-23T18:53:44.171Z,57.32
2023-05-23T18:56:29.771Z,57.36
2023-05-23T18:59:17.030Z,57.92
2023-05-23T19:02:02.924Z,57.95
2023-05-23T19:04:49.005Z,57.75
2023-05-23T19:07:34.475Z,58.25
2023-05-23T19:10:19.953Z,58.21
2023-05-23T19:13:05.120Z,58.23
2023-05-23T19:15:51.560Z,58.59
2023-05-23T19:18:37.512Z,58.68
2023-05-23T19:21:23.111Z,58.56
2023-05-23T19:24:09.297Z,58.89
2023-05-23T19:26:56.312Z,58.85
2023-05-23T19:29:42.533Z,59.18
2023-05-23T19:32:28.450Z,59.11
2023-05-23T19:35:16.466Z,59.24
2023-05-23T19:38:02.413Z,59.05
2023-05-23T19:40:48.018Z,59.75
2023-05-23T19:43:33.331Z,60.08
2023-05-23T19:46:18.757Z,59.87
2023-05-23T19:49:04.243Z,59.94
2023-05-23T19:51:49.818Z,60.00
2023-05-23T19:54:35.684Z,60.28
2023-05-23T19:57:21.068Z,59.74
2023-05-23T20:00:10.509Z,60.16
2023-05-23T20:02:57.001Z,60.34
2023-05-23T20:05:43.051Z,60.99
2023-05-23T20:08:28.728Z,60.46
2023-05-23T20:11:14.260Z,60.92
2023-05-23T20:13:59.464Z,61.22
2023-05-23T20:16:45.015Z,60.53
2023-05-23T20:19:30.509Z,60.72
2023-05-23T20:22:16.977Z,60.75
2023-05-23T20:25:02.298Z,60.84
2023-05-23T20:27:47.646Z,61.17
2023-05-23T20:30:33.210Z,60.82
2023-05-23T20:33:19.283Z,60.73
2023-05-23T20:36:04.883Z,60.88
2023-05-23T20:38:52.736Z,61.01
2023-05-23T20:41:41.540Z,61.83
2023-05-23T20:44:27.159Z,61.35
2023-05-23T20:47:13.602Z,61.74
2023-05-23T20:49:59.255Z,61.23
2023-05-23T20:52:44.552Z,61.23
2023-05-23T20:55:30.357Z,61.51
2023-05-23T20:58:16.384Z,61.80
2023-05-23T21:01:02.046Z,62.23
2023-05-23T21:03:47.459Z,61.72
2023-05-23T21:06:34.271Z,61.89
2023-05-23T21:09:20.242Z,62.87
2023-05-23T21:12:05.924Z,62.31
2023-05-23T21:14:52.007Z,62.71
2023-05-23T21:17:37.817Z,62.54
2023-05-23T21:20:23.280Z,62.28
2023-05-23T21:23:09.044Z,62.84
2023-05-23T21:25:54.742Z,62.83
2023-05-23T21:28:40.113Z,62.38
2023-05-23T21:31:37.110Z,62.87
2023-05-23T21:34:24.476Z,62.39
2023-05-23T21:37:10.370Z,63.19
2023-05-23T21:39:56.109Z,63.47
2023-05-23T21:42:41.998Z,63.14
2023-05-23T21:45:27.607Z,63.58
2023-05-23T21:48:12.826Z,63.71
2023-05-23T21:50:58.324Z,64.07
2023-05-23T21:53:43.551Z,63.86
2023-05-23T21:56:29.177Z,63.38
2023-05-23T21:59:14.399Z,63.82
2023-05-23T22:02:00.185Z,63.64
2023-05-23T22:04:46.202Z,64.13
2023-05-23T22:07:31.952Z,64.01
2023-05-23T22:10:17.411Z,64.11
2023-05-23T22:13:04.852Z,63.88
2023-05-23T22:15:50.291Z,63.71
2023-05-23T22:18:51.571Z,63.90
2023-05-23T22:21:38.253Z,64.56
2023-05-23T22:24:24.072Z,63.84
2023-05-23T22:27:09.782Z,64.36
2023-05-23T22:29:55.154Z,63.81
2023-05-23T22:32:40.507Z,64.36
2023-05-23T22:35:26.020Z,64.13
2023-05-23T22:38:11.631Z,64.95
2023-05-23T22:40:57.551Z,64.84
2023-05-23T22:43:42.875Z,64.41
2023-05-23T22:46:28.357Z,63.85
2023-05-23T22:49:15.429Z,64.89
2023-05-23T22:52:01.417Z,64.58
2023-05-23T22:54:47.161Z,65.00
2023-05-23T22:57:32.984Z,64.71
2023-05-23T23:00:19.284Z,64.39
2023-05-23T23:03:05.829Z,64.71
2023-05-23T23:05:51.375Z,64.32
2023-05-23T23:08:37.798Z,64.36
2023-05-23T23:11:23.099Z,64.64
2023-05-23T23:14:08.482Z,64.51
2023-05-23T23:16:54.479Z,64.18
2023-05-23T23:19:41.293Z,64.78
2023-05-23T23:22:26.745Z,64.23
2023-05-23T23:25:12.055Z,65.13
2023-05-23T23:27:57.777Z,64.76
2023-05-23T23:30:44.094Z,64.66
2023-05-23T23:33:29.812Z,64.38
2023-05-23T23:36:15.814Z,64.67
2023-05-23T23:39:01.488Z,65.06
2023-05-23T23:41:48.391Z,64.47
2023-05-23T23:44:33.958Z,64.77
2023-05-23T23:47:19.281Z,64.85
2023-05-23T23:50:05.230Z,64.46
2023-05-23T23:52:50.679Z,64.57
2023-05-23T23:55:36.006Z,64.90
2023-05-23T23:58:22.012Z,64.54
